sensor_id;sensor_type;location;lat;lon;timestamp;P1;durP1;ratioP1;P2;durP2;ratioP2
4601;SDS011;2313;48.552;9.370;2023-02-12T00:02:05;38.90;;;23.00;;
4601;SDS011;2313;48.552;9.370;2023-02-12T00:04:31;37.57;;;22.93;;
4601;SDS011;2313;48.552;9.370;2023-02-12T00:06:57;41.90;;;22.87;;
4601;SDS011;2313;48.552;9.370;2023-02-12T00:09:23;37.20;;;21.40;;
4601;SDS011;2313;48.552;9.370;2023-02-12T00:11:48;34.63;;;22.00;;
4601;SDS011;2313;48.552;9.370;2023-02-12T00:14:14;38.93;;;21.90;;
4601;SDS011;2313;48.552;9.370;2023-02-12T00:16:40;41.07;;;21.80;;
4601;SDS011;2313;48.552;9.370;2023-02-12T00:19:05;34.93;;;21.63;;
4601;SDS011;2313;48.552;9.370;2023-02-12T00:21:31;39.93;;;21.43;;
4601;SDS011;2313;48.552;9.370;2023-02-12T00:23:57;40.80;;;21.80;;
4601;SDS011;2313;48.552;9.370;2023-02-12T00:26:22;44.33;;;22.33;;
4601;SDS011;2313;48.552;9.370;2023-02-12T00:28:48;40.67;;;23.23;;
4601;SDS011;2313;48.552;9.370;2023-02-12T00:31:16;36.50;;;21.13;;
4601;SDS011;2313;48.552;9.370;2023-02-12T00:33:44;37.50;;;21.73;;
4601;SDS011;2313;48.552;9.370;2023-02-12T00:36:12;36.63;;;20.15;;
4601;SDS011;2313;48.552;9.370;2023-02-12T00:38:40;37.40;;;20.95;;
4601;SDS011;2313;48.552;9.370;2023-02-12T00:41:06;40.17;;;21.00;;
4601;SDS011;2313;48.552;9.370;2023-02-12T00:43:31;39.53;;;21.83;;
4601;SDS011;2313;48.552;9.370;2023-02-12T00:45:57;36.87;;;21.50;;
4601;SDS011;2313;48.552;9.370;2023-02-12T00:48:22;39.70;;;21.33;;
4601;SDS011;2313;48.552;9.370;2023-02-12T00:50:48;35.90;;;21.43;;
4601;SDS011;2313;48.552;9.370;2023-02-12T00:53:16;44.73;;;26.03;;
4601;SDS011;2313;48.552;9.370;2023-02-12T00:55:41;41.07;;;25.20;;
4601;SDS011;2313;48.552;9.370;2023-02-12T00:58:07;43.87;;;24.37;;
4601;SDS011;2313;48.552;9.370;2023-02-12T01:00:33;42.57;;;25.70;;
4601;SDS011;2313;48.552;9.370;2023-02-12T01:02:59;45.03;;;24.97;;
4601;SDS011;2313;48.552;9.370;2023-02-12T01:05:24;42.37;;;25.20;;
4601;SDS011;2313;48.552;9.370;2023-02-12T01:07:51;45.60;;;25.87;;
4601;SDS011;2313;48.552;9.370;2023-02-12T01:10:17;47.38;;;25.98;;
4601;SDS011;2313;48.552;9.370;2023-02-12T01:12:47;43.40;;;25.50;;
4601;SDS011;2313;48.552;9.370;2023-02-12T01:15:13;50.92;;;27.65;;
4601;SDS011;2313;48.552;9.370;2023-02-12T01:17:40;53.20;;;26.60;;
4601;SDS011;2313;48.552;9.370;2023-02-12T01:20:06;48.43;;;27.77;;
4601;SDS011;2313;48.552;9.370;2023-02-12T01:22:35;41.13;;;24.00;;
4601;SDS011;2313;48.552;9.370;2023-02-12T01:25:01;47.85;;;25.70;;
4601;SDS011;2313;48.552;9.370;2023-02-12T01:27:28;53.30;;;26.80;;
4601;SDS011;2313;48.552;9.370;2023-02-12T01:29:54;44.97;;;26.30;;
4601;SDS011;2313;48.552;9.370;2023-02-12T01:32:19;61.20;;;31.63;;
4601;SDS011;2313;48.552;9.370;2023-02-12T01:34:45;46.13;;;28.40;;
4601;SDS011;2313;48.552;9.370;2023-02-12T01:37:17;42.95;;;24.25;;
4601;SDS011;2313;48.552;9.370;2023-02-12T01:39:42;46.10;;;25.03;;
4601;SDS011;2313;48.552;9.370;2023-02-12T01:42:09;43.23;;;25.40;;
4601;SDS011;2313;48.552;9.370;2023-02-12T01:47:40;37.25;;;23.00;;
4601;SDS011;2313;48.552;9.370;2023-02-12T01:50:09;41.93;;;22.30;;
4601;SDS011;2313;48.552;9.370;2023-02-12T01:52:44;43.63;;;22.27;;
4601;SDS011;2313;48.552;9.370;2023-02-12T01:55:14;41.25;;;23.73;;
4601;SDS011;2313;48.552;9.370;2023-02-12T01:57:41;38.63;;;21.90;;
4601;SDS011;2313;48.552;9.370;2023-02-12T02:00:11;40.05;;;22.10;;
4601;SDS011;2313;48.552;9.370;2023-02-12T02:02:39;42.45;;;23.25;;
4601;SDS011;2313;48.552;9.370;2023-02-12T02:05:09;42.63;;;23.90;;
4601;SDS011;2313;48.552;9.370;2023-02-12T02:07:36;49.53;;;23.02;;
4601;SDS011;2313;48.552;9.370;2023-02-12T02:10:03;38.95;;;23.55;;
4601;SDS011;2313;48.552;9.370;2023-02-12T02:12:29;41.67;;;23.80;;
4601;SDS011;2313;48.552;9.370;2023-02-12T02:15:13;39.58;;;22.77;;
4601;SDS011;2313;48.552;9.370;2023-02-12T02:31:58;49.40;;;23.08;;
4601;SDS011;2313;48.552;9.370;2023-02-12T02:34:49;41.47;;;22.33;;
4601;SDS011;2313;48.552;9.370;2023-02-12T02:40:23;38.90;;;22.77;;
4601;SDS011;2313;48.552;9.370;2023-02-12T02:48:23;50.03;;;26.03;;
4601;SDS011;2313;48.552;9.370;2023-02-12T02:51:11;48.17;;;25.63;;
4601;SDS011;2313;48.552;9.370;2023-02-12T02:54:26;42.92;;;24.63;;
4601;SDS011;2313;48.552;9.370;2023-02-12T02:56:56;50.97;;;24.02;;
4601;SDS011;2313;48.552;9.370;2023-02-12T02:59:37;37.97;;;23.37;;
4601;SDS011;2313;48.552;9.370;2023-02-12T03:05:01;40.90;;;24.63;;
4601;SDS011;2313;48.552;9.370;2023-02-12T03:07:31;47.33;;;25.15;;
4601;SDS011;2313;48.552;9.370;2023-02-12T03:10:06;43.10;;;23.73;;
4601;SDS011;2313;48.552;9.370;2023-02-12T03:12:43;47.63;;;24.53;;
4601;SDS011;2313;48.552;9.370;2023-02-12T03:15:26;42.13;;;24.70;;
4601;SDS011;2313;48.552;9.370;2023-02-12T03:17:58;40.80;;;24.75;;
4601;SDS011;2313;48.552;9.370;2023-02-12T03:20:34;43.57;;;23.83;;
4601;SDS011;2313;48.552;9.370;2023-02-12T03:23:16;43.73;;;25.43;;
4601;SDS011;2313;48.552;9.370;2023-02-12T03:25:49;48.90;;;24.77;;
4601;SDS011;2313;48.552;9.370;2023-02-12T03:28:31;47.22;;;25.45;;
4601;SDS011;2313;48.552;9.370;2023-02-12T03:36:50;44.30;;;25.87;;
4601;SDS011;2313;48.552;9.370;2023-02-12T03:40:14;44.08;;;23.48;;
4601;SDS011;2313;48.552;9.370;2023-02-12T03:45:09;44.95;;;25.88;;
4601;SDS011;2313;48.552;9.370;2023-02-12T03:47:46;51.10;;;25.02;;
4601;SDS011;2313;48.552;9.370;2023-02-12T03:50:27;45.92;;;24.55;;
4601;SDS011;2313;48.552;9.370;2023-02-12T03:53:09;42.83;;;23.90;;
4601;SDS011;2313;48.552;9.370;2023-02-12T03:55:35;45.23;;;25.87;;
4601;SDS011;2313;48.552;9.370;2023-02-12T03:58:05;46.03;;;26.52;;
4601;SDS011;2313;48.552;9.370;2023-02-12T04:00:33;39.05;;;23.27;;
4601;SDS011;2313;48.552;9.370;2023-02-12T04:03:03;53.05;;;24.95;;
4601;SDS011;2313;48.552;9.370;2023-02-12T04:05:30;45.78;;;23.60;;
4601;SDS011;2313;48.552;9.370;2023-02-12T04:07:55;42.70;;;25.60;;
4601;SDS011;2313;48.552;9.370;2023-02-12T04:10:26;47.75;;;25.25;;
4601;SDS011;2313;48.552;9.370;2023-02-12T04:13:03;45.40;;;25.60;;
4601;SDS011;2313;48.552;9.370;2023-02-12T04:21:11;43.10;;;23.17;;
4601;SDS011;2313;48.552;9.370;2023-02-12T04:27:00;43.38;;;24.60;;
4601;SDS011;2313;48.552;9.370;2023-02-12T04:38:06;45.50;;;24.10;;
4601;SDS011;2313;48.552;9.370;2023-02-12T04:40:35;43.60;;;23.55;;
4601;SDS011;2313;48.552;9.370;2023-02-12T04:43:03;49.57;;;24.73;;
4601;SDS011;2313;48.552;9.370;2023-02-12T04:45:30;42.37;;;23.43;;
4601;SDS011;2313;48.552;9.370;2023-02-12T04:47:57;44.72;;;23.20;;
4601;SDS011;2313;48.552;9.370;2023-02-12T04:50:23;42.37;;;23.20;;
4601;SDS011;2313;48.552;9.370;2023-02-12T04:52:49;42.00;;;23.43;;
4601;SDS011;2313;48.552;9.370;2023-02-12T04:55:15;40.30;;;23.03;;
4601;SDS011;2313;48.552;9.370;2023-02-12T04:57:41;37.93;;;21.83;;
4601;SDS011;2313;48.552;9.370;2023-02-12T05:00:08;43.90;;;22.73;;
4601;SDS011;2313;48.552;9.370;2023-02-12T05:02:36;43.28;;;23.52;;
4601;SDS011;2313;48.552;9.370;2023-02-12T05:05:01;36.23;;;21.73;;
4601;SDS011;2313;48.552;9.370;2023-02-12T05:07:27;41.63;;;21.83;;
4601;SDS011;2313;48.552;9.370;2023-02-12T05:09:53;45.93;;;24.00;;
4601;SDS011;2313;48.552;9.370;2023-02-12T05:12:19;41.13;;;22.67;;
4601;SDS011;2313;48.552;9.370;2023-02-12T05:14:44;43.70;;;23.30;;
4601;SDS011;2313;48.552;9.370;2023-02-12T05:17:10;45.20;;;25.43;;
4601;SDS011;2313;48.552;9.370;2023-02-12T05:19:35;54.87;;;25.23;;
4601;SDS011;2313;48.552;9.370;2023-02-12T05:22:01;42.60;;;24.73;;
4601;SDS011;2313;48.552;9.370;2023-02-12T05:24:27;40.80;;;23.70;;
4601;SDS011;2313;48.552;9.370;2023-02-12T05:26:52;42.33;;;23.73;;
4601;SDS011;2313;48.552;9.370;2023-02-12T05:29:18;44.30;;;23.80;;
4601;SDS011;2313;48.552;9.370;2023-02-12T05:31:44;47.73;;;25.40;;
4601;SDS011;2313;48.552;9.370;2023-02-12T05:34:10;42.90;;;22.73;;
4601;SDS011;2313;48.552;9.370;2023-02-12T05:36:37;41.40;;;22.63;;
4601;SDS011;2313;48.552;9.370;2023-02-12T05:39:05;47.00;;;24.87;;
4601;SDS011;2313;48.552;9.370;2023-02-12T05:41:31;44.50;;;24.50;;
4601;SDS011;2313;48.552;9.370;2023-02-12T05:44:01;42.13;;;23.80;;
4601;SDS011;2313;48.552;9.370;2023-02-12T05:46:27;41.92;;;22.30;;
4601;SDS011;2313;48.552;9.370;2023-02-12T05:48:53;42.47;;;24.37;;
4601;SDS011;2313;48.552;9.370;2023-02-12T05:51:19;46.63;;;25.73;;
4601;SDS011;2313;48.552;9.370;2023-02-12T05:53:47;44.90;;;24.40;;
4601;SDS011;2313;48.552;9.370;2023-02-12T05:56:15;46.70;;;26.10;;
4601;SDS011;2313;48.552;9.370;2023-02-12T05:58:44;42.80;;;24.70;;
4601;SDS011;2313;48.552;9.370;2023-02-12T06:01:14;47.20;;;25.27;;
4601;SDS011;2313;48.552;9.370;2023-02-12T06:03:42;45.45;;;23.95;;
4601;SDS011;2313;48.552;9.370;2023-02-12T06:06:08;43.08;;;24.48;;
4601;SDS011;2313;48.552;9.370;2023-02-12T06:08:34;45.13;;;25.20;;
4601;SDS011;2313;48.552;9.370;2023-02-12T06:11:01;50.53;;;25.60;;
4601;SDS011;2313;48.552;9.370;2023-02-12T06:13:28;47.38;;;25.23;;
4601;SDS011;2313;48.552;9.370;2023-02-12T06:15:55;47.33;;;26.25;;
4601;SDS011;2313;48.552;9.370;2023-02-12T06:18:21;51.80;;;26.33;;
4601;SDS011;2313;48.552;9.370;2023-02-12T06:20:46;46.83;;;25.47;;
4601;SDS011;2313;48.552;9.370;2023-02-12T06:23:12;53.53;;;26.67;;
4601;SDS011;2313;48.552;9.370;2023-02-12T06:25:38;54.00;;;27.70;;
4601;SDS011;2313;48.552;9.370;2023-02-12T06:28:03;43.70;;;24.77;;
4601;SDS011;2313;48.552;9.370;2023-02-12T06:30:29;45.60;;;23.53;;
4601;SDS011;2313;48.552;9.370;2023-02-12T06:32:56;44.90;;;24.13;;
4601;SDS011;2313;48.552;9.370;2023-02-12T06:35:21;40.27;;;22.60;;
4601;SDS011;2313;48.552;9.370;2023-02-12T06:37:47;44.73;;;24.33;;
4601;SDS011;2313;48.552;9.370;2023-02-12T06:40:13;49.17;;;25.37;;
4601;SDS011;2313;48.552;9.370;2023-02-12T06:42:38;47.40;;;24.70;;
4601;SDS011;2313;48.552;9.370;2023-02-12T06:45:04;51.23;;;25.27;;
4601;SDS011;2313;48.552;9.370;2023-02-12T06:47:30;41.40;;;23.60;;
4601;SDS011;2313;48.552;9.370;2023-02-12T06:49:55;46.17;;;23.43;;
4601;SDS011;2313;48.552;9.370;2023-02-12T06:52:21;44.57;;;22.73;;
4601;SDS011;2313;48.552;9.370;2023-02-12T06:54:47;50.40;;;22.00;;
4601;SDS011;2313;48.552;9.370;2023-02-12T06:57:12;53.80;;;28.57;;
4601;SDS011;2313;48.552;9.370;2023-02-12T06:59:38;54.83;;;26.13;;
4601;SDS011;2313;48.552;9.370;2023-02-12T07:02:03;49.70;;;27.20;;
4601;SDS011;2313;48.552;9.370;2023-02-12T07:04:29;51.80;;;27.47;;
4601;SDS011;2313;48.552;9.370;2023-02-12T07:06:55;49.97;;;27.80;;
4601;SDS011;2313;48.552;9.370;2023-02-12T07:09:20;55.10;;;30.17;;
4601;SDS011;2313;48.552;9.370;2023-02-12T07:11:46;67.27;;;29.30;;
4601;SDS011;2313;48.552;9.370;2023-02-12T07:14:12;49.17;;;26.47;;
4601;SDS011;2313;48.552;9.370;2023-02-12T07:16:39;49.95;;;25.38;;
4601;SDS011;2313;48.552;9.370;2023-02-12T07:19:05;47.23;;;23.77;;
4601;SDS011;2313;48.552;9.370;2023-02-12T07:21:31;45.10;;;22.90;;
4601;SDS011;2313;48.552;9.370;2023-02-12T07:23:57;44.63;;;22.42;;
4601;SDS011;2313;48.552;9.370;2023-02-12T07:26:23;35.20;;;20.73;;
4601;SDS011;2313;48.552;9.370;2023-02-12T07:28:49;44.87;;;20.47;;
4601;SDS011;2313;48.552;9.370;2023-02-12T07:31:19;41.65;;;22.27;;
4601;SDS011;2313;48.552;9.370;2023-02-12T07:33:47;40.22;;;20.48;;
4601;SDS011;2313;48.552;9.370;2023-02-12T07:36:14;52.35;;;27.35;;
4601;SDS011;2313;48.552;9.370;2023-02-12T07:38:42;45.88;;;23.83;;
4601;SDS011;2313;48.552;9.370;2023-02-12T07:43:45;38.25;;;21.73;;
4601;SDS011;2313;48.552;9.370;2023-02-12T07:46:13;40.58;;;20.90;;
4601;SDS011;2313;48.552;9.370;2023-02-12T07:48:43;35.25;;;20.52;;
4601;SDS011;2313;48.552;9.370;2023-02-12T07:51:11;35.67;;;20.02;;
4601;SDS011;2313;48.552;9.370;2023-02-12T07:53:38;38.30;;;20.45;;
4601;SDS011;2313;48.552;9.370;2023-02-12T07:58:34;41.38;;;21.65;;
4601;SDS011;2313;48.552;9.370;2023-02-12T08:01:00;37.87;;;20.80;;
4601;SDS011;2313;48.552;9.370;2023-02-12T08:03:35;39.20;;;21.17;;
4601;SDS011;2313;48.552;9.370;2023-02-12T08:06:05;39.80;;;20.70;;
4601;SDS011;2313;48.552;9.370;2023-02-12T08:08:35;34.83;;;20.15;;
4601;SDS011;2313;48.552;9.370;2023-02-12T08:11:03;30.70;;;17.33;;
4601;SDS011;2313;48.552;9.370;2023-02-12T08:13:30;35.63;;;19.10;;
4601;SDS011;2313;48.552;9.370;2023-02-12T08:16:03;32.80;;;18.40;;
4601;SDS011;2313;48.552;9.370;2023-02-12T08:18:31;36.03;;;20.00;;
4601;SDS011;2313;48.552;9.370;2023-02-12T08:21:05;37.92;;;20.65;;
4601;SDS011;2313;48.552;9.370;2023-02-12T08:23:32;32.95;;;17.75;;
4601;SDS011;2313;48.552;9.370;2023-02-12T08:26:08;36.47;;;19.27;;
4601;SDS011;2313;48.552;9.370;2023-02-12T08:28:42;32.70;;;19.23;;
4601;SDS011;2313;48.552;9.370;2023-02-12T08:31:17;34.95;;;18.45;;
4601;SDS011;2313;48.552;9.370;2023-02-12T08:34:17;39.30;;;20.33;;
4601;SDS011;2313;48.552;9.370;2023-02-12T08:36:44;35.03;;;20.67;;
4601;SDS011;2313;48.552;9.370;2023-02-12T08:39:10;42.30;;;23.70;;
4601;SDS011;2313;48.552;9.370;2023-02-12T08:41:36;37.03;;;22.50;;
4601;SDS011;2313;48.552;9.370;2023-02-12T08:44:02;38.40;;;23.27;;
4601;SDS011;2313;48.552;9.370;2023-02-12T08:46:32;25.20;;;15.73;;
4601;SDS011;2313;48.552;9.370;2023-02-12T08:49:03;28.00;;;17.92;;
4601;SDS011;2313;48.552;9.370;2023-02-12T08:51:34;30.50;;;15.87;;
4601;SDS011;2313;48.552;9.370;2023-02-12T08:54:04;25.67;;;16.60;;
4601;SDS011;2313;48.552;9.370;2023-02-12T08:56:31;35.83;;;23.50;;
4601;SDS011;2313;48.552;9.370;2023-02-12T08:58:58;40.95;;;24.80;;
4601;SDS011;2313;48.552;9.370;2023-02-12T09:01:25;44.22;;;23.90;;
4601;SDS011;2313;48.552;9.370;2023-02-12T09:03:55;31.60;;;18.63;;
4601;SDS011;2313;48.552;9.370;2023-02-12T09:06:21;18.93;;;11.90;;
4601;SDS011;2313;48.552;9.370;2023-02-12T09:08:48;7.20;;;4.63;;
4601;SDS011;2313;48.552;9.370;2023-02-12T09:11:15;6.33;;;4.20;;
4601;SDS011;2313;48.552;9.370;2023-02-12T09:13:50;5.77;;;3.90;;
4601;SDS011;2313;48.552;9.370;2023-02-12T09:16:17;5.80;;;3.80;;
4601;SDS011;2313;48.552;9.370;2023-02-12T09:18:42;5.23;;;3.80;;
4601;SDS011;2313;48.552;9.370;2023-02-12T09:21:12;6.63;;;4.10;;
4601;SDS011;2313;48.552;9.370;2023-02-12T09:23:41;6.07;;;3.53;;
4601;SDS011;2313;48.552;9.370;2023-02-12T09:26:08;6.77;;;3.90;;
4601;SDS011;2313;48.552;9.370;2023-02-12T09:28:36;6.20;;;4.10;;
4601;SDS011;2313;48.552;9.370;2023-02-12T09:31:06;6.33;;;4.67;;
4601;SDS011;2313;48.552;9.370;2023-02-12T09:33:33;9.23;;;4.87;;
4601;SDS011;2313;48.552;9.370;2023-02-12T09:36:02;6.73;;;4.70;;
4601;SDS011;2313;48.552;9.370;2023-02-12T09:38:29;6.23;;;3.80;;
4601;SDS011;2313;48.552;9.370;2023-02-12T09:46:31;8.43;;;4.30;;
4601;SDS011;2313;48.552;9.370;2023-02-12T09:51:53;14.03;;;8.20;;
4601;SDS011;2313;48.552;9.370;2023-02-12T09:54:21;8.07;;;5.20;;
4601;SDS011;2313;48.552;9.370;2023-02-12T09:56:54;6.50;;;4.00;;
4601;SDS011;2313;48.552;9.370;2023-02-12T10:02:16;7.40;;;3.57;;
4601;SDS011;2313;48.552;9.370;2023-02-12T10:04:44;5.93;;;2.77;;
4601;SDS011;2313;48.552;9.370;2023-02-12T10:28:36;5.37;;;3.80;;
4601;SDS011;2313;48.552;9.370;2023-02-12T10:31:27;5.33;;;3.67;;
4601;SDS011;2313;48.552;9.370;2023-02-12T10:33:53;4.77;;;3.67;;
4601;SDS011;2313;48.552;9.370;2023-02-12T10:41:45;4.77;;;3.70;;
4601;SDS011;2313;48.552;9.370;2023-02-12T10:44:13;4.50;;;3.90;;
4601;SDS011;2313;48.552;9.370;2023-02-12T10:46:39;4.60;;;3.30;;
4601;SDS011;2313;48.552;9.370;2023-02-12T10:49:05;4.40;;;3.63;;
4601;SDS011;2313;48.552;9.370;2023-02-12T10:54:41;4.77;;;3.70;;
4601;SDS011;2313;48.552;9.370;2023-02-12T10:57:21;4.63;;;3.00;;
4601;SDS011;2313;48.552;9.370;2023-02-12T10:59:55;5.20;;;3.87;;
4601;SDS011;2313;48.552;9.370;2023-02-12T11:02:38;4.60;;;3.13;;
4601;SDS011;2313;48.552;9.370;2023-02-12T11:07:49;4.23;;;3.37;;
4601;SDS011;2313;48.552;9.370;2023-02-12T11:10:20;4.70;;;3.50;;
4601;SDS011;2313;48.552;9.370;2023-02-12T11:12:51;6.50;;;4.07;;
4601;SDS011;2313;48.552;9.370;2023-02-12T11:15:21;5.80;;;4.10;;
4601;SDS011;2313;48.552;9.370;2023-02-12T11:17:59;6.70;;;4.20;;
4601;SDS011;2313;48.552;9.370;2023-02-12T11:23:48;10.17;;;5.80;;
4601;SDS011;2313;48.552;9.370;2023-02-12T11:31:22;8.17;;;5.40;;
4601;SDS011;2313;48.552;9.370;2023-02-12T11:34:35;7.00;;;5.17;;
4601;SDS011;2313;48.552;9.370;2023-02-12T11:36:46;10.30;;;6.03;;
4601;SDS011;2313;48.552;9.370;2023-02-12T11:41:48;12.07;;;7.00;;
4601;SDS011;2313;48.552;9.370;2023-02-12T11:44:29;12.10;;;6.33;;
4601;SDS011;2313;48.552;9.370;2023-02-12T11:47:05;10.63;;;6.40;;
4601;SDS011;2313;48.552;9.370;2023-02-12T11:49:41;8.57;;;6.03;;
4601;SDS011;2313;48.552;9.370;2023-02-12T11:52:22;11.43;;;6.37;;
4601;SDS011;2313;48.552;9.370;2023-02-12T11:54:52;8.13;;;5.43;;
4601;SDS011;2313;48.552;9.370;2023-02-12T12:00:12;7.73;;;5.33;;
4601;SDS011;2313;48.552;9.370;2023-02-12T12:03:03;9.13;;;5.50;;
4601;SDS011;2313;48.552;9.370;2023-02-12T12:05:44;11.97;;;5.73;;
4601;SDS011;2313;48.552;9.370;2023-02-12T12:11:13;8.47;;;6.20;;
4601;SDS011;2313;48.552;9.370;2023-02-12T12:13:53;8.10;;;4.97;;
4601;SDS011;2313;48.552;9.370;2023-02-12T12:16:29;8.03;;;5.40;;
4601;SDS011;2313;48.552;9.370;2023-02-12T12:19:19;7.20;;;4.43;;
4601;SDS011;2313;48.552;9.370;2023-02-12T12:22:30;6.17;;;4.20;;
4601;SDS011;2313;48.552;9.370;2023-02-12T12:25:04;7.23;;;5.00;;
4601;SDS011;2313;48.552;9.370;2023-02-12T12:33:55;3.80;;;3.30;;
4601;SDS011;2313;48.552;9.370;2023-02-12T12:47:44;5.40;;;4.33;;
4601;SDS011;2313;48.552;9.370;2023-02-12T12:53:33;4.83;;;3.70;;
4601;SDS011;2313;48.552;9.370;2023-02-12T12:59:15;4.80;;;3.83;;
4601;SDS011;2313;48.552;9.370;2023-02-12T13:19:10;8.03;;;4.73;;
4601;SDS011;2313;48.552;9.370;2023-02-12T13:24:42;6.90;;;4.93;;
4601;SDS011;2313;48.552;9.370;2023-02-12T13:27:22;8.43;;;5.10;;
4601;SDS011;2313;48.552;9.370;2023-02-12T13:29:59;8.07;;;5.73;;
4601;SDS011;2313;48.552;9.370;2023-02-12T13:32:42;8.37;;;4.97;;
4601;SDS011;2313;48.552;9.370;2023-02-12T13:35:15;9.20;;;6.17;;
4601;SDS011;2313;48.552;9.370;2023-02-12T13:37:46;9.80;;;6.30;;
4601;SDS011;2313;48.552;9.370;2023-02-12T13:40:28;17.23;;;8.87;;
4601;SDS011;2313;48.552;9.370;2023-02-12T13:42:57;7.60;;;5.17;;
4601;SDS011;2313;48.552;9.370;2023-02-12T13:48:27;15.03;;;6.60;;
4601;SDS011;2313;48.552;9.370;2023-02-12T13:56:46;6.87;;;5.90;;
4601;SDS011;2313;48.552;9.370;2023-02-12T14:01:56;6.10;;;4.23;;
4601;SDS011;2313;48.552;9.370;2023-02-12T14:04:32;6.00;;;4.13;;
4601;SDS011;2313;48.552;9.370;2023-02-12T14:07:05;10.60;;;4.23;;
4601;SDS011;2313;48.552;9.370;2023-02-12T14:12:07;5.07;;;4.03;;
4601;SDS011;2313;48.552;9.370;2023-02-12T14:14:55;8.37;;;5.63;;
4601;SDS011;2313;48.552;9.370;2023-02-12T14:27:49;6.70;;;4.50;;
4601;SDS011;2313;48.552;9.370;2023-02-12T14:37:54;6.90;;;5.23;;
4601;SDS011;2313;48.552;9.370;2023-02-12T14:43:03;6.07;;;4.00;;
4601;SDS011;2313;48.552;9.370;2023-02-12T14:45:47;5.20;;;3.97;;
4601;SDS011;2313;48.552;9.370;2023-02-12T14:51:03;4.20;;;3.40;;
4601;SDS011;2313;48.552;9.370;2023-02-12T14:53:33;5.43;;;4.60;;
4601;SDS011;2313;48.552;9.370;2023-02-12T14:56:01;5.63;;;4.23;;
4601;SDS011;2313;48.552;9.370;2023-02-12T14:58:28;5.10;;;3.77;;
4601;SDS011;2313;48.552;9.370;2023-02-12T15:00:56;4.17;;;3.53;;
4601;SDS011;2313;48.552;9.370;2023-02-12T15:03:31;4.23;;;3.83;;
4601;SDS011;2313;48.552;9.370;2023-02-12T15:08:39;4.07;;;3.37;;
4601;SDS011;2313;48.552;9.370;2023-02-12T15:11:46;5.10;;;2.93;;
4601;SDS011;2313;48.552;9.370;2023-02-12T15:17:01;4.13;;;3.17;;
4601;SDS011;2313;48.552;9.370;2023-02-12T15:19:33;4.13;;;3.73;;
4601;SDS011;2313;48.552;9.370;2023-02-12T15:24:45;3.40;;;3.10;;
4601;SDS011;2313;48.552;9.370;2023-02-12T15:27:12;4.47;;;3.60;;
4601;SDS011;2313;48.552;9.370;2023-02-12T15:29:43;4.03;;;3.53;;
4601;SDS011;2313;48.552;9.370;2023-02-12T15:32:16;4.40;;;3.60;;
4601;SDS011;2313;48.552;9.370;2023-02-12T15:34:52;3.97;;;3.43;;
4601;SDS011;2313;48.552;9.370;2023-02-12T15:37:24;4.07;;;3.60;;
4601;SDS011;2313;48.552;9.370;2023-02-12T15:39:53;4.20;;;3.10;;
4601;SDS011;2313;48.552;9.370;2023-02-12T15:42:34;4.47;;;3.50;;
4601;SDS011;2313;48.552;9.370;2023-02-12T15:47:34;6.27;;;4.20;;
4601;SDS011;2313;48.552;9.370;2023-02-12T15:50:00;9.50;;;6.87;;
4601;SDS011;2313;48.552;9.370;2023-02-12T15:52:31;6.60;;;4.40;;
4601;SDS011;2313;48.552;9.370;2023-02-12T15:55:01;5.13;;;4.43;;
4601;SDS011;2313;48.552;9.370;2023-02-12T15:57:29;9.30;;;6.57;;
4601;SDS011;2313;48.552;9.370;2023-02-12T16:00:02;4.37;;;3.97;;
4601;SDS011;2313;48.552;9.370;2023-02-12T16:02:31;6.03;;;3.07;;
4601;SDS011;2313;48.552;9.370;2023-02-12T16:05:00;3.77;;;3.23;;
4601;SDS011;2313;48.552;9.370;2023-02-12T16:07:28;3.20;;;2.90;;
4601;SDS011;2313;48.552;9.370;2023-02-12T16:09:58;3.60;;;2.60;;
4601;SDS011;2313;48.552;9.370;2023-02-12T16:12:26;6.27;;;4.20;;
4601;SDS011;2313;48.552;9.370;2023-02-12T16:14:56;5.40;;;4.20;;
4601;SDS011;2313;48.552;9.370;2023-02-12T16:22:22;3.57;;;3.23;;
4601;SDS011;2313;48.552;9.370;2023-02-12T16:24:57;24.73;;;12.10;;
4601;SDS011;2313;48.552;9.370;2023-02-12T16:27:32;5.23;;;3.50;;
4601;SDS011;2313;48.552;9.370;2023-02-12T16:30:00;3.30;;;2.43;;
4601;SDS011;2313;48.552;9.370;2023-02-12T16:32:33;3.60;;;2.97;;
4601;SDS011;2313;48.552;9.370;2023-02-12T16:35:00;4.70;;;3.20;;
4601;SDS011;2313;48.552;9.370;2023-02-12T16:37:49;5.50;;;4.33;;
4601;SDS011;2313;48.552;9.370;2023-02-12T16:40:18;3.20;;;2.90;;
4601;SDS011;2313;48.552;9.370;2023-02-12T16:47:52;4.63;;;3.43;;
4601;SDS011;2313;48.552;9.370;2023-02-12T16:50:19;4.40;;;3.30;;
4601;SDS011;2313;48.552;9.370;2023-02-12T16:52:47;3.23;;;2.60;;
4601;SDS011;2313;48.552;9.370;2023-02-12T16:55:14;3.20;;;2.60;;
4601;SDS011;2313;48.552;9.370;2023-02-12T16:57:41;4.63;;;3.20;;
4601;SDS011;2313;48.552;9.370;2023-02-12T17:00:08;5.03;;;3.47;;
4601;SDS011;2313;48.552;9.370;2023-02-12T17:02:39;6.37;;;4.57;;
4601;SDS011;2313;48.552;9.370;2023-02-12T17:05:05;4.47;;;2.97;;
4601;SDS011;2313;48.552;9.370;2023-02-12T17:07:31;4.03;;;3.13;;
4601;SDS011;2313;48.552;9.370;2023-02-12T17:09:57;5.60;;;4.20;;
4601;SDS011;2313;48.552;9.370;2023-02-12T17:12:23;4.90;;;3.30;;
4601;SDS011;2313;48.552;9.370;2023-02-12T17:14:50;4.30;;;3.47;;
4601;SDS011;2313;48.552;9.370;2023-02-12T17:17:15;3.40;;;2.93;;
4601;SDS011;2313;48.552;9.370;2023-02-12T17:19:41;7.40;;;4.87;;
4601;SDS011;2313;48.552;9.370;2023-02-12T17:22:11;9.23;;;6.10;;
4601;SDS011;2313;48.552;9.370;2023-02-12T17:24:43;7.63;;;5.60;;
4601;SDS011;2313;48.552;9.370;2023-02-12T17:27:15;11.10;;;7.53;;
4601;SDS011;2313;48.552;9.370;2023-02-12T17:29:44;6.70;;;4.87;;
4601;SDS011;2313;48.552;9.370;2023-02-12T17:32:10;7.00;;;5.30;;
4601;SDS011;2313;48.552;9.370;2023-02-12T17:34:36;7.40;;;5.67;;
4601;SDS011;2313;48.552;9.370;2023-02-12T17:37:02;7.00;;;4.43;;
4601;SDS011;2313;48.552;9.370;2023-02-12T17:39:28;6.03;;;4.43;;
4601;SDS011;2313;48.552;9.370;2023-02-12T17:41:54;8.50;;;6.50;;
4601;SDS011;2313;48.552;9.370;2023-02-12T17:44:19;5.80;;;3.47;;
4601;SDS011;2313;48.552;9.370;2023-02-12T17:46:45;5.40;;;3.60;;
4601;SDS011;2313;48.552;9.370;2023-02-12T17:49:11;5.87;;;4.10;;
4601;SDS011;2313;48.552;9.370;2023-02-12T17:51:37;5.67;;;3.30;;
4601;SDS011;2313;48.552;9.370;2023-02-12T17:54:03;5.60;;;3.20;;
4601;SDS011;2313;48.552;9.370;2023-02-12T17:56:29;5.70;;;3.80;;
4601;SDS011;2313;48.552;9.370;2023-02-12T17:58:54;4.80;;;3.20;;
4601;SDS011;2313;48.552;9.370;2023-02-12T18:01:21;6.60;;;3.63;;
4601;SDS011;2313;48.552;9.370;2023-02-12T18:03:47;5.93;;;3.80;;
4601;SDS011;2313;48.552;9.370;2023-02-12T18:06:16;5.27;;;3.80;;
4601;SDS011;2313;48.552;9.370;2023-02-12T18:08:46;8.27;;;4.00;;
4601;SDS011;2313;48.552;9.370;2023-02-12T18:11:12;6.70;;;4.53;;
4601;SDS011;2313;48.552;9.370;2023-02-12T18:13:38;11.83;;;7.40;;
4601;SDS011;2313;48.552;9.370;2023-02-12T18:16:05;10.40;;;6.50;;
4601;SDS011;2313;48.552;9.370;2023-02-12T18:18:32;12.33;;;7.93;;
4601;SDS011;2313;48.552;9.370;2023-02-12T18:20:58;19.83;;;11.63;;
4601;SDS011;2313;48.552;9.370;2023-02-12T18:23:24;14.33;;;8.80;;
4601;SDS011;2313;48.552;9.370;2023-02-12T18:25:49;12.27;;;8.10;;
4601;SDS011;2313;48.552;9.370;2023-02-12T18:28:15;14.40;;;9.47;;
4601;SDS011;2313;48.552;9.370;2023-02-12T18:30:41;44.30;;;25.37;;
4601;SDS011;2313;48.552;9.370;2023-02-12T18:33:07;16.60;;;11.30;;
4601;SDS011;2313;48.552;9.370;2023-02-12T18:35:33;24.88;;;12.23;;
4601;SDS011;2313;48.552;9.370;2023-02-12T18:38:00;19.95;;;12.30;;
4601;SDS011;2313;48.552;9.370;2023-02-12T18:40:26;18.00;;;11.40;;
4601;SDS011;2313;48.552;9.370;2023-02-12T18:42:52;11.17;;;7.40;;
4601;SDS011;2313;48.552;9.370;2023-02-12T18:45:18;12.13;;;7.93;;
4601;SDS011;2313;48.552;9.370;2023-02-12T18:47:44;12.57;;;8.17;;
4601;SDS011;2313;48.552;9.370;2023-02-12T18:50:09;12.30;;;8.23;;
4601;SDS011;2313;48.552;9.370;2023-02-12T18:52:35;6.97;;;5.47;;
4601;SDS011;2313;48.552;9.370;2023-02-12T18:55:01;12.63;;;7.63;;
4601;SDS011;2313;48.552;9.370;2023-02-12T18:57:28;6.32;;;5.10;;
4601;SDS011;2313;48.552;9.370;2023-02-12T18:59:55;8.85;;;5.22;;